Time;durP1;ratioP1;P1;durP2;ratioP2;P2;SDS_P1;SDS_P2;PMS_P1;PMS_P2;Temp;Humidity;BMP_temperature;BMP_pressure;BME280_temperature;BME280_humidity;BME280_pressure;Samples;Min_cycle;Max_cycle;Signal;HPM_P1;HPM_P2
2021/09/22 00:00:59;;;;;;;3.10;2.87;;;;;;;22.32;44.24;99626.63;5136506;27;20674;-52
2021/09/22 00:03:25;;;;;;;3.33;3.07;;;;;;;22.32;44.25;99622.16;5117674;27;20198;-51
2021/09/22 00:05:52;;;;;;;2.90;2.67;;;;;;;22.32;44.03;99624.81;5136152;27;20193;-51
2021/09/22 00:08:19;;;;;;;3.27;3.00;;;;;;;22.31;44.21;99617.81;5136620;27;20193;-53
2021/09/22 00:10:45;;;;;;;3.27;2.97;;;;;;;22.30;44.09;99618.81;5136164;27;20655;-52
2021/09/22 00:13:12;;;;;;;2.90;2.70;;;;;;;22.30;44.29;99618.81;5136146;27;20189;-51
2021/09/22 00:15:38;;;;;;;3.00;2.70;;;;;;;22.34;44.30;99625.50;5135877;27;20199;-50
2021/09/22 00:18:05;;;;;;;2.90;2.70;;;;;;;22.33;44.19;99626.47;5135849;27;20206;-53
2021/09/22 00:20:32;;;;;;;3.23;2.97;;;;;;;22.36;44.24;99622.69;5135897;27;20183;-51
2021/09/22 00:23:01;;;;;;;3.20;2.90;;;;;;;22.32;44.18;99618.66;5135810;27;20186;-51
2021/09/22 00:25:29;;;;;;;2.97;2.77;;;;;;;22.32;44.24;99616.84;5117618;27;20182;-52
2021/09/22 00:27:56;;;;;;;2.87;2.67;;;;;;;22.31;44.37;99615.16;5135936;27;20687;-51
2021/09/22 00:30:23;;;;;;;2.90;2.70;;;;;;;22.28;44.29;99620.81;5117273;27;20718;-51
2021/09/22 00:32:51;;;;;;;3.23;2.97;;;;;;;22.25;44.12;99624.59;5135945;27;20189;-51
2021/09/22 00:35:18;;;;;;;2.77;2.57;;;;;;;22.30;44.09;99625.94;5135623;27;20248;-53
2021/09/22 00:37:45;;;;;;;2.73;2.53;;;;;;;22.30;43.99;99624.13;5117042;27;20214;-52
2021/09/22 00:40:12;;;;;;;2.97;2.77;;;;;;;22.28;44.04;99623.47;5135535;27;20239;-54
2021/09/22 00:42:39;;;;;;;3.03;2.73;;;;;;;22.24;44.30;99620.28;5135363;27;20247;-53
2021/09/22 00:45:09;;;;;;;2.57;2.37;;;;;;;22.27;44.25;99619.97;5135359;27;20647;-53
2021/09/22 00:47:35;;;;;;;2.87;2.67;;;;;;;22.29;44.14;99621.63;5116827;27;20277;-51
2021/09/22 00:50:12;;;;;;;3.10;2.80;;;;;;;22.30;44.08;99613.50;5116892;27;20255;-53
2021/09/22 00:52:40;;;;;;;2.80;2.60;;;;;;;22.38;43.86;99610.88;5116803;27;20662;-52
2021/09/22 00:55:08;;;;;;;2.60;2.40;;;;;;;22.31;44.01;99615.16;5116666;27;20232;-52
2021/09/22 00:57:46;;;;;;;3.07;2.87;;;;;;;22.31;44.05;99614.31;5117093;27;20218;-53
2021/09/22 01:00:13;;;;;;;3.30;2.70;;;;;;;22.30;44.10;99612.66;5135429;27;20181;-52
2021/09/22 01:02:40;;;;;;;3.00;2.80;;;;;;;22.26;44.22;99612.13;5135059;27;20186;-51
2021/09/22 01:05:07;;;;;;;2.70;2.50;;;;;;;22.28;44.29;99607.50;5116600;27;20204;-51
2021/09/22 01:07:34;;;;;;;2.67;2.47;;;;;;;22.28;44.27;99610.16;5116484;27;20271;-53
2021/09/22 01:10:00;;;;;;;2.60;2.40;;;;;;;22.30;43.90;99612.66;5134858;27;20704;-52
2021/09/22 01:12:27;;;;;;;2.70;2.50;;;;;;;22.27;44.27;99606.66;5135091;27;20182;-51
2021/09/22 01:14:53;;;;;;;2.67;2.47;;;;;;;22.31;44.28;99609.84;5134622;27;20624;-51
2021/09/22 01:17:19;;;;;;;2.97;2.50;;;;;;;22.30;44.20;99610.00;5134778;27;20714;-52
2021/09/22 01:19:47;;;;;;;2.80;2.60;;;;;;;22.27;44.15;99608.47;5116193;27;20612;-54
2021/09/22 01:22:17;;;;;;;2.63;2.43;;;;;;;22.32;43.94;99611.53;5135167;27;20186;-51
2021/09/22 01:24:58;;;;;;;2.77;2.57;;;;;;;22.33;44.14;99605.19;5134831;27;20167;-51
2021/09/22 01:27:26;;;;;;;3.00;2.80;;;;;;;22.33;43.90;99610.53;5116100;27;20283;-54
2021/09/22 01:29:53;;;;;;;3.03;2.83;;;;;;;22.33;43.87;99610.53;5116235;27;20210;-53
2021/09/22 01:32:25;;;;;;;2.60;2.40;;;;;;;22.30;44.12;99604.69;5116181;27;20278;-53
2021/09/22 01:34:55;;;;;;;2.80;2.60;;;;;;;22.28;43.96;99610.16;5099801;27;20262;-52
2021/09/22 01:37:38;;;;;;;2.70;2.50;;;;;;;22.24;44.23;99616.78;5116174;27;20256;-52
2021/09/22 01:40:34;;;;;;;2.97;2.77;;;;;;;22.22;44.30;99611.63;5116198;27;20210;-52
2021/09/22 01:43:02;;;;;;;2.73;2.53;;;;;;;22.19;44.07;99619.09;5115841;27;20194;-51
2021/09/22 01:45:37;;;;;;;2.70;2.50;;;;;;;22.20;44.07;99618.09;5116063;27;20192;-51
2021/09/22 01:48:07;;;;;;;2.73;2.53;;;;;;;22.23;44.37;99620.44;5115934;27;20254;-52
2021/09/22 01:50:34;;;;;;;2.40;2.30;;;;;;;22.20;44.15;99612.78;5115755;27;20611;-52
2021/09/22 01:53:03;;;;;;;2.87;2.67;;;;;;;22.21;44.19;99611.78;5115216;27;20198;-53
2021/09/22 01:55:29;;;;;;;2.70;2.50;;;;;;;22.19;44.16;99619.09;5115653;27;20212;-52
2021/09/22 01:58:08;;;;;;;2.47;2.27;;;;;;;22.19;44.13;99619.09;5116214;27;20670;-53
2021/09/22 02:00:50;;;;;;;2.63;2.43;;;;;;;22.19;44.08;99616.41;5116405;27;20190;-54
2021/09/22 02:03:28;;;;;;;2.23;2.13;;;;;;;22.18;44.21;99617.41;5116156;27;20189;-53
2021/09/22 02:06:09;;;;;;;2.20;2.10;;;;;;;22.17;44.40;99613.91;5115554;28;20220;-53
2021/09/22 02:08:39;;;;;;;2.70;2.50;;;;;;;22.17;44.19;99619.22;5133899;27;20593;-52
2021/09/22 02:11:17;;;;;;;2.40;2.27;;;;;;;22.18;44.13;99620.06;5115691;28;20204;-53
2021/09/22 02:13:44;;;;;;;2.60;2.40;;;;;;;22.17;44.33;99613.09;5115336;28;20193;-52
2021/09/22 02:16:16;;;;;;;2.60;2.40;;;;;;;22.16;44.13;99614.09;5115298;28;20312;-51
2021/09/22 02:19:01;;;;;;;2.50;2.30;;;;;;;22.15;44.18;99621.22;5115516;28;20190;-51
2021/09/22 02:21:29;;;;;;;2.50;2.30;;;;;;;22.16;44.39;99619.41;5116169;28;20198;-54
2021/09/22 02:24:01;;;;;;;2.20;2.10;;;;;;;22.19;44.24;99616.41;5115525;28;20194;-53
2021/09/22 02:26:28;;;;;;;2.70;2.50;;;;;;;22.15;44.41;99615.91;5115202;28;20213;-53
2021/09/22 02:28:54;;;;;;;2.50;2.30;;;;;;;22.15;44.47;99601.78;5133766;28;20181;-51
2021/09/22 02:31:21;;;;;;;2.73;2.53;;;;;;;22.12;44.51;99601.09;5115323;28;20196;-52
2021/09/22 02:34:14;;;;;;;2.37;2.23;;;;;;;22.16;44.33;99598.13;5128635;28;20324;-54
2021/09/22 02:36:41;;;;;;;2.50;2.30;;;;;;;22.16;44.35;99598.13;5098451;28;20283;-51
2021/09/22 02:39:10;;;;;;;2.10;2.00;;;;;;;22.17;44.19;99589.97;5115677;28;20194;-52
2021/09/22 02:41:42;;;;;;;2.53;2.33;;;;;;;22.11;44.51;99583.50;5115160;28;20179;-54
2021/09/22 02:44:11;;;;;;;2.40;2.30;;;;;;;22.14;44.46;99570.88;5115175;28;20255;-52
2021/09/22 02:46:44;;;;;;;2.70;2.50;;;;;;;22.14;44.40;99582.31;5114978;28;20648;-53
2021/09/22 02:49:11;;;;;;;2.93;2.53;;;;;;;22.12;44.28;99584.31;5114956;28;20206;-53
2021/09/22 02:51:37;;;;;;;2.53;2.33;;;;;;;22.11;44.40;99587.97;5114932;28;20205;-53
2021/09/22 02:54:04;;;;;;;2.70;2.50;;;;;;;22.10;44.30;99589.78;5133287;28;20210;-53
2021/09/22 02:56:37;;;;;;;2.57;2.37;;;;;;;22.08;44.49;99581.13;5114955;28;20298;-51
2021/09/22 02:59:04;;;;;;;2.10;2.00;;;;;;;22.07;44.60;99581.31;5114897;28;20564;-53
2021/09/22 03:01:31;;;;;;;2.20;2.03;;;;;;;22.06;44.46;99575.13;5114896;28;20198;-52
2021/09/22 03:04:00;;;;;;;2.57;2.40;;;;;;;22.06;44.61;99583.09;5114842;28;20191;-53
2021/09/22 03:06:29;;;;;;;2.40;2.30;;;;;;;22.06;44.24;99585.78;5119031;27;20222;-50
2021/09/22 03:08:56;;;;;;;2.83;2.63;;;;;;;22.03;44.34;99585.25;5119026;27;20201;-53
2021/09/22 03:11:22;;;;;;;2.40;2.20;;;;;;;22.03;44.32;99583.44;5137101;27;20189;-52
2021/09/22 03:13:49;;;;;;;2.23;2.13;;;;;;;22.03;44.35;99580.78;5118603;27;20195;-51
2021/09/22 03:16:16;;;;;;;2.70;2.50;;;;;;;22.04;44.21;99577.13;5137091;27;20558;-51
2021/09/22 03:18:42;;;;;;;2.13;2.03;;;;;;;22.06;44.57;99584.94;5137419;27;20519;-52
2021/09/22 03:21:10;;;;;;;2.30;2.20;;;;;;;22.07;44.45;99584.78;5118640;27;20191;-51
2021/09/22 03:23:38;;;;;;;2.33;2.23;;;;;;;22.06;44.49;99588.44;5118639;27;20193;-51
2021/09/22 03:26:06;;;;;;;2.67;2.47;;;;;;;22.07;44.13;99584.78;5118555;27;20265;-52
2021/09/22 03:28:33;;;;;;;2.60;2.40;;;;;;;22.07;44.18;99584.78;5135699;27;20197;-53
2021/09/22 03:30:59;;;;;;;2.50;2.30;;;;;;;22.07;44.47;99587.44;5137434;27;20549;-51
2021/09/22 03:33:28;;;;;;;2.30;2.10;;;;;;;22.04;44.27;99579.78;5118490;27;20243;-52
2021/09/22 03:35:55;;;;;;;2.30;2.20;;;;;;;22.04;44.31;99578.97;5118287;27;20222;-52
2021/09/22 03:38:23;;;;;;;2.40;2.30;;;;;;;22.02;44.63;99576.44;5118381;27;20185;-52
2021/09/22 03:40:55;;;;;;;2.50;2.30;;;;;;;22.00;44.35;99583.75;5118376;27;20756;-54
2021/09/22 03:43:22;;;;;;;2.10;2.00;;;;;;;21.98;44.31;99583.06;5118259;27;20187;-54
2021/09/22 03:45:49;;;;;;;2.50;2.30;;;;;;;21.99;44.43;99584.75;5136577;27;20740;-53
2021/09/22 03:48:16;;;;;;;2.47;2.30;;;;;;;22.02;44.36;99578.25;5118296;27;20197;-53
2021/09/22 03:50:42;;;;;;;2.20;2.10;;;;;;;22.03;44.58;99586.09;5136694;27;20198;-52
2021/09/22 03:53:16;;;;;;;2.10;2.00;;;;;;;21.96;44.49;99585.06;5118778;27;20190;-51
2021/09/22 03:55:45;;;;;;;2.37;2.17;;;;;;;21.95;44.42;99594.00;5118051;27;20225;-51
2021/09/22 03:58:14;;;;;;;2.40;2.20;;;;;;;21.93;44.48;99593.31;5118020;27;20189;-52
2021/09/22 04:00:41;;;;;;;2.07;1.97;;;;;;;21.97;44.55;99584.88;5117983;27;20243;-51
2021/09/22 04:03:08;;;;;;;2.30;2.20;;;;;;;22.02;44.64;99589.75;5117930;27;20206;-53
2021/09/22 04:05:35;;;;;;;2.10;2.00;;;;;;;21.97;44.35;99581.41;5117840;27;20247;-51
2021/09/22 04:08:02;;;;;;;2.50;2.30;;;;;;;21.96;44.57;99582.41;5117708;27;20217;-51
2021/09/22 04:10:31;;;;;;;2.17;2.07;;;;;;;21.93;44.32;99582.69;5118249;27;20195;-52
2021/09/22 04:12:58;;;;;;;2.40;2.20;;;;;;;21.93;44.52;99590.66;5117703;27;20198;-51
2021/09/22 04:15:29;;;;;;;2.20;2.10;;;;;;;21.92;44.68;99589.00;5117495;27;20309;-53
2021/09/22 04:17:56;;;;;;;2.10;1.93;;;;;;;21.92;44.63;99589.00;5117516;27;20247;-53
2021/09/22 04:20:23;;;;;;;2.50;2.30;;;;;;;21.88;44.82;99598.28;5117578;27;20194;-51
2021/09/22 04:22:49;;;;;;;2.30;2.20;;;;;;;21.89;44.81;99599.94;5117565;27;20584;-53
2021/09/22 04:25:16;;;;;;;2.33;2.20;;;;;;;21.88;44.75;99598.28;5117467;27;20265;-54
2021/09/22 04:27:54;;;;;;;2.13;2.03;;;;;;;21.86;44.67;99595.75;5117420;27;20743;-53
2021/09/22 04:30:39;;;;;;;2.30;2.10;;;;;;;21.87;44.71;99585.97;5136407;27;20185;-53
2021/09/22 04:33:24;;;;;;;2.00;1.90;;;;;;;21.92;44.37;99578.38;5136038;27;20186;-52
2021/09/22 04:36:09;;;;;;;2.50;2.30;;;;;;;21.93;44.31;99580.88;5120218;27;20591;-52
2021/09/22 04:38:54;;;;;;;1.87;1.77;;;;;;;21.93;44.50;99590.66;5136173;27;20224;-53
2021/09/22 04:41:41;;;;;;;2.27;2.17;;;;;;;21.93;44.73;99590.66;5093517;27;20202;-51
2021/09/22 04:44:45;;;;;;;2.43;2.30;;;;;;;21.97;44.67;99586.72;5052293;28;20270;-54
2021/09/22 04:47:31;;;;;;;2.00;1.90;;;;;;;21.92;44.50;99599.63;5052222;28;20219;-53
2021/09/22 04:50:16;;;;;;;2.37;2.17;;;;;;;21.92;44.35;99602.28;5112367;27;20254;-52
2021/09/22 04:53:01;;;;;;;2.10;2.00;;;;;;;21.91;44.71;99589.97;5135921;27;20186;-52
2021/09/22 04:55:46;;;;;;;2.20;2.10;;;;;;;21.94;44.56;99589.66;5135257;27;20320;-54
2021/09/22 04:58:31;;;;;;;2.17;2.07;;;;;;;21.93;44.40;99588.84;5135804;27;20228;-52
2021/09/22 05:01:16;;;;;;;2.13;2.03;;;;;;;21.91;44.68;99595.31;5135753;27;20708;-52
2021/09/22 05:04:01;;;;;;;2.50;2.30;;;;;;;21.90;44.44;99601.59;5135347;27;20202;-54
2021/09/22 05:06:47;;;;;;;2.20;2.10;;;;;;;21.88;44.28;99593.81;5136555;27;20570;-51
2021/09/22 05:09:32;;;;;;;1.97;1.80;;;;;;;21.88;44.48;99585.84;5135516;27;20235;-53
2021/09/22 05:12:17;;;;;;;2.03;1.83;;;;;;;21.94;44.33;99595.84;5135607;27;20732;-50
2021/09/22 05:15:05;;;;;;;2.53;2.33;;;;;;;21.98;44.40;99593.72;5135205;27;20295;-51
2021/09/22 05:17:50;;;;;;;2.40;2.20;;;;;;;22.05;44.10;99593.91;5135290;27;20219;-53
2021/09/22 05:20:35;;;;;;;2.10;2.00;;;;;;;22.05;44.33;99600.06;5135121;27;20184;-51
2021/09/22 05:23:20;;;;;;;2.23;2.10;;;;;;;22.09;44.17;99605.91;5135093;27;20236;-52
2021/09/22 05:26:05;;;;;;;2.50;2.30;;;;;;;22.12;43.98;99603.78;5134967;27;20578;-51
2021/09/22 05:28:50;;;;;;;2.00;1.90;;;;;;;22.14;44.21;99598.28;5134598;27;20180;-54
2021/09/22 05:31:35;;;;;;;2.13;1.90;;;;;;;22.16;43.86;99598.94;5134958;27;20702;-52
2021/09/22 05:34:21;;;;;;;2.10;2.00;;;;;;;22.17;43.93;99603.28;5134805;27;20288;-51
2021/09/22 05:37:06;;;;;;;2.20;2.07;;;;;;;22.17;44.29;99599.78;5134653;27;20295;-51
2021/09/22 05:39:50;;;;;;;1.97;1.87;;;;;;;22.19;44.09;99600.47;5134670;27;20219;-52
2021/09/22 05:42:40;;;;;;;2.00;1.90;;;;;;;22.22;43.96;99603.66;5095595;27;20296;-51
2021/09/22 05:45:25;;;;;;;2.40;2.20;;;;;;;22.28;43.74;99607.50;5134457;27;20177;-50
2021/09/22 05:48:10;;;;;;;2.33;1.97;;;;;;;22.33;43.87;99609.69;5134748;27;20184;-54
2021/09/22 05:50:56;;;;;;;1.80;1.70;;;;;;;22.35;44.24;99611.19;5134491;27;20659;-52
2021/09/22 05:53:58;;;;;;;2.03;1.93;;;;;;;22.45;43.97;99611.06;5051158;28;20258;-54
2021/09/22 05:56:45;;;;;;;2.30;2.10;;;;;;;22.47;44.16;99608.28;5128257;27;20235;-52
2021/09/22 05:59:30;;;;;;;1.97;1.80;;;;;;;22.49;44.03;99609.78;5134562;27;20197;-53
2021/09/22 06:02:31;;;;;;;1.97;1.87;;;;;;;22.50;44.35;99613.28;5051725;28;20597;-52
2021/09/22 06:05:17;;;;;;;2.53;2.00;;;;;;;22.50;44.33;99613.28;5127975;27;20197;-54
2021/09/22 06:08:02;;;;;;;1.80;1.70;;;;;;;22.55;44.37;99613.66;5134450;27;20225;-53
2021/09/22 06:11:07;;;;;;;2.07;1.97;;;;;;;22.56;44.20;99617.16;5117692;27;20344;-54
2021/09/22 06:13:53;;;;;;;1.90;1.80;;;;;;;22.53;44.40;99618.28;5116259;28;20178;-53
2021/09/22 06:16:20;;;;;;;3.67;2.00;;;;;;;22.54;44.54;99619.97;5133827;27;20218;-54
2021/09/22 06:18:47;;;;;;;1.73;1.63;;;;;;;22.61;44.27;99615.69;5134442;27;20247;-53
2021/09/22 06:21:15;;;;;;;2.30;2.10;;;;;;;22.63;44.10;99608.38;5116419;28;20287;-52
2021/09/22 06:23:42;;;;;;;2.30;2.10;;;;;;;22.65;43.81;99603.72;5133939;28;20193;-53
2021/09/22 06:26:08;;;;;;;3.00;1.93;;;;;;;22.68;44.02;99598.06;5133908;28;20202;-52
2021/09/22 06:28:35;;;;;;;2.23;2.10;;;;;;;22.69;43.99;99599.75;5115451;28;20689;-52
2021/09/22 06:31:03;;;;;;;2.27;2.10;;;;;;;22.74;43.78;99603.75;5133855;28;20239;-54
2021/09/22 06:33:29;;;;;;;2.10;1.93;;;;;;;22.72;43.92;99617.22;5133844;28;20226;-53
2021/09/22 06:36:00;;;;;;;1.80;1.70;;;;;;;22.75;43.85;99610.72;5115295;28;20332;-52
2021/09/22 06:38:32;;;;;;;2.10;2.00;;;;;;;22.73;43.93;99615.38;5117161;27;20203;-52
2021/09/22 06:41:03;;;;;;;2.30;2.07;;;;;;;22.74;43.66;99622.38;5119485;27;20191;-53
2021/09/22 06:43:34;;;;;;;1.90;1.80;;;;;;;22.72;43.81;99619.03;5119624;27;20589;-50
2021/09/22 06:46:01;;;;;;;2.77;2.00;;;;;;;22.71;43.94;99625.34;5137896;27;20250;-51
2021/09/22 06:48:28;;;;;;;1.80;1.70;;;;;;;22.67;43.91;99625.69;5137670;27;20233;-50
2021/09/22 06:50:54;;;;;;;1.83;1.73;;;;;;;22.72;43.76;99621.69;5137633;27;20250;-50
2021/09/22 06:53:20;;;;;;;2.00;1.80;;;;;;;22.78;43.54;99621.06;5137478;27;20243;-53
2021/09/22 06:55:47;;;;;;;2.27;2.10;;;;;;;22.82;43.35;99622.41;5137263;27;20210;-51
2021/09/22 06:58:13;;;;;;;2.10;2.00;;;;;;;22.86;43.28;99623.75;5137413;27;20186;-51
2021/09/22 07:00:40;;;;;;;1.70;1.60;;;;;;;22.92;43.31;99617.78;5137413;27;20193;-51
2021/09/22 07:03:11;;;;;;;1.93;1.83;;;;;;;22.92;43.16;99623.13;5137483;27;20190;-51
2021/09/22 07:05:39;;;;;;;2.03;1.93;;;;;;;22.93;43.18;99619.47;5137557;27;20182;-52
2021/09/22 07:08:06;;;;;;;2.10;2.00;;;;;;;22.94;43.26;99625.59;5137211;27;20213;-50
2021/09/22 07:10:36;;;;;;;2.40;2.20;;;;;;;22.94;43.23;99621.13;5137383;27;20676;-50
2021/09/22 07:13:03;;;;;;;3.20;1.60;;;;;;;22.90;43.25;99626.94;5137161;27;20183;-52
2021/09/22 07:15:30;;;;;;;2.03;1.90;;;;;;;22.85;43.41;99630.06;5137033;27;20214;-51
2021/09/22 07:17:56;;;;;;;1.90;1.80;;;;;;;22.82;43.50;99639.19;5136932;27;20698;-52
2021/09/22 07:20:23;;;;;;;2.00;1.90;;;;;;;22.71;43.82;99625.34;5137501;27;20588;-53
2021/09/22 08:20:11;;;;;;;3.73;2.10;;;;;;;21.59;46.74;99640.03;5158246;27;20569;-51
2021/09/22 08:22:38;;;;;;;2.27;2.07;;;;;;;21.75;46.45;99647.34;5151654;27;20209;-52
2021/09/22 08:25:05;;;;;;;1.97;1.87;;;;;;;21.80;46.33;99645.06;5151696;27;20241;-51
2021/09/22 08:27:32;;;;;;;2.23;2.00;;;;;;;21.87;45.96;99639.94;5151617;27;20206;-52
2021/09/22 08:29:58;;;;;;;3.53;2.10;;;;;;;21.94;45.57;99645.47;5151622;27;20229;-51
2021/09/22 08:32:25;;;;;;;4.47;2.20;;;;;;;21.95;45.83;99637.38;5151439;27;20189;-56
2021/09/22 08:49:16;;;;;;;2.30;1.93;;;;;;;22.20;45.10;99640.22;5069263;28;20719;-52
2021/09/22 08:51:44;;;;;;;3.63;2.20;;;;;;;22.29;44.80;99641.09;5070096;28;20204;-50
2021/09/22 08:54:11;;;;;;;3.70;2.77;;;;;;;22.22;43.95;99643.53;5070483;28;20197;-52
2021/09/22 08:56:40;;;;;;;3.23;2.90;;;;;;;22.15;43.67;99634.50;5070151;28;20654;-52
2021/09/22 08:59:08;;;;;;;3.10;2.80;;;;;;;22.10;42.98;99639.47;5069999;28;20725;-52
2021/09/22 09:01:35;;;;;;;4.03;2.90;;;;;;;22.08;42.70;99642.25;5070012;28;20244;-52
2021/09/22 09:04:19;;;;;;;3.37;3.00;;;;;;;22.04;42.16;99634.78;5069993;28;20686;-52
2021/09/22 09:06:54;;;;;;;3.43;2.70;;;;;;;22.09;42.02;99641.28;5070451;28;20189;-53
2021/09/22 09:09:37;;;;;;;3.10;2.80;;;;;;;22.03;42.16;99641.91;5070000;28;20226;-52
2021/09/22 09:12:18;;;;;;;3.13;2.67;;;;;;;22.04;42.03;99643.56;5069809;28;20208;-52
2021/09/22 09:15:03;;;;;;;2.90;2.70;;;;;;;22.08;42.19;99636.94;5070076;28;20185;-53
2021/09/22 09:17:44;;;;;;;5.30;2.70;;;;;;;22.02;42.26;99637.59;5069687;28;20575;-51
2021/09/22 09:20:18;;;;;;;3.00;2.80;;;;;;;22.01;42.23;99641.22;5069989;28;20247;-51
2021/09/22 09:23:00;;;;;;;3.10;2.80;;;;;;;22.02;42.25;99636.72;5069618;28;20685;-51
2021/09/22 09:25:29;;;;;;;2.87;2.57;;;;;;;22.05;41.98;99642.59;5069759;28;20190;-51
2021/09/22 09:27:57;;;;;;;3.67;2.70;;;;;;;22.04;41.97;99634.78;5070583;28;20231;-54
2021/09/22 09:30:27;;;;;;;3.27;2.37;;;;;;;22.06;42.06;99638.13;5069534;28;20217;-52
2021/09/22 09:32:53;;;;;;;3.10;2.50;;;;;;;22.04;42.01;99640.09;5070032;28;20188;-51
2021/09/22 09:35:22;;;;;;;3.03;2.70;;;;;;;22.09;41.48;99633.28;5069913;28;20544;-51
2021/09/22 09:37:55;;;;;;;2.80;2.60;;;;;;;22.09;41.28;99637.78;5068709;28;20242;-51
2021/09/22 09:40:27;;;;;;;2.83;2.53;;;;;;;22.16;41.61;99632.69;5068890;28;20652;-51
2021/09/22 09:43:01;;;;;;;3.00;2.43;;;;;;;22.18;41.60;99631.53;5068203;28;20189;-53
2021/09/22 09:45:35;;;;;;;2.80;2.60;;;;;;;22.21;41.57;99619.75;5068079;28;20264;-51
2021/09/22 09:48:17;;;;;;;2.90;2.63;;;;;;;22.20;41.47;99624.25;5079565;28;20219;-52
2021/09/22 09:50:47;;;;;;;3.50;2.87;;;;;;;22.09;41.53;99622.66;5089765;28;20276;-51
2021/09/22 09:53:31;;;;;;;2.60;2.40;;;;;;;22.09;41.90;99619.19;5089722;28;20220;-51
2021/09/22 09:56:00;;;;;;;2.83;2.50;;;;;;;22.11;41.53;99610.06;5089375;28;20229;-52
2021/09/22 09:58:41;;;;;;;2.60;2.40;;;;;;;22.07;41.75;99614.00;5088128;28;20267;-51
2021/09/22 10:01:08;;;;;;;3.03;2.50;;;;;;;22.03;41.57;99617.97;5075721;28;20321;-51
2021/09/22 10:03:36;;;;;;;3.43;2.60;;;;;;;22.05;41.21;99610.69;5075596;28;20681;-53
2021/09/22 10:06:03;;;;;;;5.00;2.70;;;;;;;22.07;41.08;99611.34;5075659;28;20280;-52
2021/09/22 10:08:29;;;;;;;3.53;2.50;;;;;;;22.08;41.20;99614.88;5075537;28;20273;-52
2021/09/22 10:10:56;;;;;;;2.47;2.27;;;;;;;22.08;41.42;99604.22;5075470;28;20235;-52
2021/09/22 10:13:25;;;;;;;2.70;2.50;;;;;;;22.09;41.50;99606.72;5075482;28;20195;-52
2021/09/22 10:15:52;;;;;;;2.40;2.20;;;;;;;22.11;41.42;99599.44;5075745;28;20198;-50
2021/09/22 10:18:19;;;;;;;2.30;2.10;;;;;;;22.06;41.12;99599.06;5075932;28;20184;-52
2021/09/22 10:20:48;;;;;;;2.93;2.43;;;;;;;22.07;41.46;99591.94;5075333;28;20297;-51
2021/09/22 10:23:22;;;;;;;2.33;2.23;;;;;;;22.05;41.36;99588.59;5075552;28;20191;-52
2021/09/22 10:25:50;;;;;;;2.93;2.20;;;;;;;22.05;41.24;99589.41;5075295;28;20184;-52
2021/09/22 10:28:32;;;;;;;2.60;2.40;;;;;;;22.00;41.44;99586.41;5075633;28;20207;-52
2021/09/22 10:30:59;;;;;;;4.23;2.20;;;;;;;21.97;41.45;99582.22;5075022;28;20212;-52
2021/09/22 10:33:33;;;;;;;2.77;2.40;;;;;;;22.00;41.23;99580.25;5075393;28;20543;-51
2021/09/22 10:36:02;;;;;;;2.27;2.10;;;;;;;22.03;41.71;99580.78;5074944;28;20184;-51
2021/09/22 10:38:28;;;;;;;2.23;2.03;;;;;;;22.07;41.70;99575.97;5074795;28;20607;-52
2021/09/22 10:40:56;;;;;;;2.37;2.17;;;;;;;22.08;41.52;99583.78;5075179;28;20736;-51
2021/09/22 10:43:28;;;;;;;3.10;2.40;;;;;;;22.07;41.47;99576.81;5074869;28;20234;-51
2021/09/22 10:46:06;;;;;;;3.37;2.53;;;;;;;21.98;41.40;99575.91;5075101;28;20237;-51
2021/09/22 10:48:35;;;;;;;2.33;2.13;;;;;;;21.82;41.55;99563.38;5056953;28;20571;-52
2021/09/22 10:51:04;;;;;;;2.53;2.33;;;;;;;21.61;41.08;99568.16;5074740;28;20254;-52
2021/09/22 10:53:31;;;;;;;2.50;2.30;;;;;;;21.45;40.57;99567.03;5074999;28;20551;-54
2021/09/22 10:56:07;;;;;;;2.00;1.90;;;;;;;21.37;40.57;99559.81;5075383;28;20528;-52
2021/09/22 10:58:51;;;;;;;4.70;1.90;;;;;;;21.44;41.02;99557.41;5074889;28;20184;-52
2021/09/22 11:01:27;;;;;;;3.93;2.30;;;;;;;21.56;40.79;99555.34;5074446;28;20294;-52
2021/09/22 11:03:55;;;;;;;2.20;2.00;;;;;;;21.65;40.66;99556.25;5074430;28;20176;-52
2021/09/22 11:06:44;;;;;;;2.30;2.10;;;;;;;21.78;40.75;99550.56;5074415;28;20263;-52
2021/09/22 11:09:25;;;;;;;2.27;2.07;;;;;;;21.83;40.89;99559.72;5074356;28;20195;-53
2021/09/22 11:12:03;;;;;;;2.23;2.10;;;;;;;21.86;41.05;99555.91;5071822;28;20215;-52
2021/09/22 11:14:39;;;;;;;3.40;2.00;;;;;;;21.91;41.03;99552.78;5073724;28;20236;-53
2021/09/22 11:17:16;;;;;;;3.07;2.00;;;;;;;21.92;41.20;99552.63;5073803;28;20180;-52
2021/09/22 11:19:48;;;;;;;2.33;2.17;;;;;;;21.95;41.10;99540.84;5057511;28;20190;-50
2021/09/22 11:22:18;;;;;;;3.10;2.03;;;;;;;21.96;41.11;99543.34;5074314;28;20740;-50
2021/09/22 11:24:46;;;;;;;2.10;1.90;;;;;;;21.97;41.62;99538.88;5074223;28;20191;-52
2021/09/22 11:27:15;;;;;;;2.57;2.13;;;;;;;22.03;41.79;99532.09;5074214;28;20196;-52
2021/09/22 11:29:47;;;;;;;2.70;2.50;;;;;;;22.06;41.71;99532.59;5074242;28;20215;-50
2021/09/22 11:32:33;;;;;;;3.67;2.10;;;;;;;22.10;41.69;99518.00;5073647;28;20213;-52
2021/09/22 11:35:05;;;;;;;4.33;3.03;;;;;;;22.11;41.88;99530.31;5074056;28;20265;-53
2021/09/22 11:37:35;;;;;;;2.87;2.17;;;;;;;22.17;42.03;99528.00;5073847;28;20191;-51
2021/09/22 11:40:30;;;;;;;2.53;1.90;;;;;;;22.15;41.86;99516.72;5074224;28;20173;-52
2021/09/22 11:43:13;;;;;;;3.30;2.20;;;;;;;22.19;42.23;99515.41;5074196;28;20573;-51
2021/09/22 11:45:51;;;;;;;2.43;2.23;;;;;;;22.20;42.26;99509.94;5073832;28;20598;-49
2021/09/22 11:48:27;;;;;;;2.47;2.27;;;;;;;22.22;42.42;99509.75;5055409;28;20277;-51
2021/09/22 11:50:55;;;;;;;3.33;2.90;;;;;;;22.23;42.21;99506.09;5073714;28;20204;-51
2021/09/22 11:53:25;;;;;;;3.30;2.43;;;;;;;22.26;42.45;99495.13;5073399;28;20596;-51
2021/09/22 11:55:52;;;;;;;3.10;2.30;;;;;;;22.26;42.18;99500.47;5073305;28;20187;-51
2021/09/22 11:58:22;;;;;;;3.03;2.50;;;;;;;22.30;42.34;99499.16;5073338;28;20550;-48
2021/09/22 12:00:51;;;;;;;2.90;2.27;;;;;;;22.30;42.19;99493.84;5074128;28;20612;-52
2021/09/22 12:03:22;;;;;;;2.90;2.67;;;;;;;22.31;42.50;99494.66;5073278;28;20529;-51
2021/09/22 12:06:09;;;;;;;4.07;2.33;;;;;;;22.33;42.47;99495.34;5056084;28;20195;-51
2021/09/22 12:08:38;;;;;;;2.47;2.20;;;;;;;22.33;42.48;99495.34;5073299;28;20204;-55
2021/09/22 12:11:06;;;;;;;2.33;2.03;;;;;;;22.38;42.00;99501.84;5073377;28;20215;-52
2021/09/22 12:13:50;;;;;;;4.30;2.90;;;;;;;22.40;42.50;99494.53;5073767;28;20193;-51
2021/09/22 12:16:19;;;;;;;4.63;3.17;;;;;;;22.41;42.69;99490.88;5073284;28;20634;-52
2021/09/22 12:18:51;;;;;;;3.87;3.10;;;;;;;22.45;43.36;99486.06;5073438;28;20548;-51
2021/09/22 12:21:21;;;;;;;3.57;2.73;;;;;;;22.45;43.26;99485.25;5073618;28;20213;-52
2021/09/22 12:23:48;;;;;;;3.30;2.90;;;;;;;22.45;43.59;99486.06;5073366;28;20177;-51
2021/09/22 12:26:16;;;;;;;3.43;3.13;;;;;;;22.41;43.71;99472.25;5073230;28;20718;-52
2021/09/22 12:28:43;;;;;;;4.33;2.80;;;;;;;22.43;43.71;99464.13;5073265;28;20258;-52
2021/09/22 12:31:14;;;;;;;5.20;3.10;;;;;;;22.40;43.78;99473.25;5073007;28;20258;-52
2021/09/22 12:33:42;;;;;;;2.93;2.63;;;;;;;22.40;44.11;99472.44;5073268;28;20263;-52
2021/09/22 12:36:18;;;;;;;3.70;2.63;;;;;;;22.41;43.86;99474.09;5055185;28;20221;-51
2021/09/22 12:38:53;;;;;;;3.10;2.80;;;;;;;22.41;43.97;99464.28;5072992;28;20222;-52
2021/09/22 12:41:22;;;;;;;3.87;3.20;;;;;;;22.46;43.79;99461.13;5072829;28;20257;-52
2021/09/22 12:43:58;;;;;;;5.07;2.90;;;;;;;22.43;43.96;99449.97;5072860;28;20192;-52
2021/09/22 12:46:33;;;;;;;3.27;2.70;;;;;;;22.46;44.32;99452.34;5073065;28;20631;-53
2021/09/22 12:49:21;;;;;;;3.43;2.80;;;;;;;22.47;44.13;99448.69;5072627;28;20261;-52
2021/09/22 12:51:54;;;;;;;3.17;2.73;;;;;;;22.45;44.29;99432.88;5073088;28;20688;-53
2021/09/22 12:54:22;;;;;;;2.63;2.43;;;;;;;22.44;44.15;99433.06;5072854;28;20179;-52
2021/09/22 12:56:48;;;;;;;3.77;2.80;;;;;;;22.45;44.37;99429.41;5072786;28;20310;-52
2021/09/22 12:59:20;;;;;;;3.90;2.80;;;;;;;22.43;44.54;99431.38;5072812;28;20184;-52
2021/09/22 13:01:51;;;;;;;3.07;2.77;;;;;;;22.43;44.34;99426.03;5072710;28;20270;-52
2021/09/22 13:04:25;;;;;;;4.00;2.63;;;;;;;22.45;44.42;99421.41;5073018;28;20191;-52
2021/09/22 13:06:56;;;;;;;3.63;2.50;;;;;;;22.45;44.38;99422.25;5072924;28;20244;-52
2021/09/22 13:09:34;;;;;;;3.77;2.80;;;;;;;22.44;44.35;99422.41;5072623;28;20196;-53
2021/09/22 13:12:01;;;;;;;3.57;2.73;;;;;;;22.41;44.35;99415.59;5072618;28;20273;-55